createdAt,value
2023-05-08T17:11:54.208Z,2.30
2023-05-08T17:14:29.227Z,2.20
2023-05-08T17:17:03.084Z,2.30
2023-05-08T17:19:38.333Z,2.60
2023-05-08T17:22:13.262Z,2.50
2023-05-08T17:24:47.885Z,2.50
2023-05-08T17:27:22.518Z,2.50
2023-05-08T17:29:57.346Z,2.40
2023-05-08T17:32:31.232Z,2.40
2023-05-08T17:35:04.958Z,2.40
2023-05-08T17:37:38.714Z,2.40
2023-05-08T17:40:15.199Z,2.50
2023-05-08T17:42:51.763Z,2.40
2023-05-08T17:45:29.644Z,2.50
2023-05-08T17:48:04.808Z,2.50
2023-05-08T17:50:42.338Z,3.00
2023-05-08T17:53:20.254Z,2.50
2023-05-08T17:55:54.810Z,2.90
2023-05-08T17:58:31.487Z,3.10
2023-05-08T18:01:06.183Z,3.30
2023-05-08T18:03:41.991Z,3.10
2023-05-08T18:06:19.215Z,3.30
2023-05-08T18:08:55.774Z,3.00
2023-05-08T18:11:30.713Z,3.10
2023-05-08T18:14:07.995Z,3.30
2023-05-08T18:16:42.163Z,3.10
2023-05-08T18:19:17.660Z,3.30
2023-05-08T18:21:51.927Z,3.20
2023-05-08T18:24:27.181Z,3.30
2023-05-08T18:27:01.040Z,3.30
2023-05-08T18:29:37.228Z,3.50
2023-05-08T18:32:14.071Z,3.60
2023-05-08T18:34:49.419Z,3.40
2023-05-08T18:37:24.904Z,3.60
2023-05-08T18:40:01.013Z,3.30
2023-05-08T18:42:36.772Z,3.20
2023-05-08T18:45:14.010Z,3.40
2023-05-08T18:47:54.634Z,3.20
2023-05-08T18:50:32.472Z,3.40
2023-05-08T18:53:06.528Z,3.40
2023-05-08T18:55:43.261Z,3.30
2023-05-08T18:58:17.272Z,3.30
2023-05-08T19:00:53.371Z,3.30
2023-05-08T19:03:27.996Z,3.40
2023-05-08T19:06:02.018Z,3.00
2023-05-08T19:08:36.387Z,3.20
2023-05-08T19:11:11.726Z,3.20
2023-05-08T19:13:47.225Z,3.30
2023-05-08T19:16:21.431Z,3.30
2023-05-08T19:18:56.017Z,3.20
2023-05-08T19:21:31.716Z,3.50
2023-05-08T19:24:07.628Z,3.00
2023-05-08T19:26:46.294Z,3.10
2023-05-08T19:29:21.532Z,3.30
2023-05-08T19:31:56.721Z,3.10
2023-05-08T19:34:37.217Z,3.00
2023-05-08T19:37:12.476Z,3.10
2023-05-08T19:39:46.658Z,2.90
2023-05-08T19:42:22.077Z,3.00
2023-05-08T19:44:58.553Z,3.00
2023-05-08T19:47:32.694Z,3.00
2023-05-08T19:50:12.657Z,3.20
2023-05-08T19:52:47.096Z,3.00
2023-05-08T19:55:22.785Z,3.10
2023-05-08T19:57:59.870Z,3.00
2023-05-08T20:00:33.779Z,3.10
2023-05-08T20:03:09.268Z,2.80
2023-05-08T20:05:45.847Z,3.00
2023-05-08T20:08:19.508Z,3.00
2023-05-08T20:10:53.923Z,3.00
2023-05-08T20:13:27.611Z,2.80
2023-05-08T20:16:01.744Z,2.80
2023-05-08T20:18:36.884Z,3.00
2023-05-08T20:21:10.631Z,3.00
2023-05-08T20:23:44.288Z,2.60
2023-05-08T20:26:18.413Z,2.70
2023-05-08T20:28:53.384Z,2.60
2023-05-08T20:31:27.993Z,2.80
2023-05-08T20:34:01.730Z,2.50
2023-05-08T20:36:35.324Z,2.90
2023-05-08T20:39:09.288Z,2.90
2023-05-08T20:41:42.967Z,2.70
2023-05-08T20:44:19.262Z,2.50
2023-05-08T20:46:52.807Z,2.50
2023-05-08T20:49:29.024Z,2.70
2023-05-08T20:52:05.700Z,2.50
2023-05-08T20:54:39.547Z,2.70
2023-05-08T20:57:16.070Z,2.50
2023-05-08T20:59:51.060Z,2.60
2023-05-08T21:02:25.428Z,2.50
2023-05-08T21:04:59.247Z,2.40
2023-05-08T21:07:34.125Z,2.60
2023-05-08T21:10:09.685Z,2.40
2023-05-08T21:12:45.620Z,2.30
2023-05-08T21:15:19.842Z,2.70
2023-05-08T21:17:54.495Z,2.50
2023-05-08T21:20:28.683Z,2.50
2023-05-08T21:23:03.568Z,2.50
2023-05-08T21:25:38.144Z,2.60
2023-05-08T21:28:12.310Z,2.50
2023-05-08T21:30:49.658Z,2.70
2023-05-08T21:33:23.816Z,2.60
2023-05-08T21:35:58.904Z,2.80
2023-05-08T21:38:33.326Z,2.50
2023-05-08T21:41:10.931Z,2.50
2023-05-08T21:43:44.833Z,2.50
2023-05-08T21:46:18.661Z,2.50
2023-05-08T21:48:57.411Z,2.50
2023-05-08T21:51:31.938Z,2.70
2023-05-08T21:54:07.380Z,2.70
2023-05-08T21:56:41.497Z,2.70
2023-05-08T21:59:15.762Z,2.60
2023-05-08T22:01:50.147Z,2.90
2023-05-08T22:04:28.041Z,2.80
2023-05-08T22:07:03.315Z,2.60
2023-05-08T22:09:37.030Z,2.80
2023-05-08T22:12:11.555Z,2.70
2023-05-08T22:14:45.515Z,2.60
2023-05-08T22:17:19.411Z,2.90
2023-05-08T22:19:53.231Z,2.70
2023-05-08T22:22:27.911Z,2.80
2023-05-08T22:25:01.939Z,2.80
2023-05-08T22:27:36.041Z,2.90
2023-05-08T22:30:11.746Z,2.70
2023-05-08T22:32:45.520Z,2.60
2023-05-08T22:35:19.200Z,2.80
2023-05-08T22:37:53.065Z,2.60
2023-05-08T22:40:27.114Z,2.50
2023-05-08T22:43:00.889Z,2.70
2023-05-08T22:45:35.426Z,2.70
2023-05-08T22:48:10.569Z,2.80
2023-05-08T22:50:44.814Z,2.70
2023-05-08T22:53:18.573Z,2.60
2023-05-08T22:55:53.196Z,2.60
2023-05-08T22:58:29.427Z,3.00
2023-05-08T23:01:03.458Z,2.70
2023-05-08T23:03:38.453Z,2.50
2023-05-08T23:06:12.828Z,2.70
2023-05-08T23:08:46.991Z,2.80
2023-05-08T23:11:22.054Z,3.10
2023-05-08T23:13:56.045Z,3.00
2023-05-08T23:16:29.976Z,2.80
2023-05-08T23:19:04.919Z,3.00
2023-05-08T23:21:38.700Z,3.10
2023-05-08T23:24:14.556Z,3.10
2023-05-08T23:26:49.918Z,3.00
2023-05-08T23:29:23.442Z,3.00
2023-05-08T23:31:59.960Z,2.80
2023-05-08T23:34:34.277Z,2.80
2023-05-08T23:37:08.595Z,2.90
2023-05-08T23:39:43.490Z,3.00
2023-05-08T23:42:17.760Z,2.80
2023-05-08T23:44:54.184Z,3.00
2023-05-08T23:47:28.096Z,2.90
2023-05-08T23:50:03.821Z,2.80
2023-05-08T23:52:40.045Z,2.80
2023-05-08T23:55:15.239Z,2.90
2023-05-08T23:57:49.346Z,3.00
